sensor_id;sensor_type;location;lat;lon;timestamp;temperature;humidity
27896;DHT22;15241;48.374;10.876;2023-05-28T00:00:12;16.50;99.30
27896;DHT22;15241;48.374;10.876;2023-05-28T00:05:12;16.50;99.10
27896;DHT22;15241;48.374;10.876;2023-05-28T00:10:11;16.40;99.00
27896;DHT22;15241;48.374;10.876;2023-05-28T00:15:11;16.40;98.70
27896;DHT22;15241;48.374;10.876;2023-05-28T00:25:18;16.30;98.50
27896;DHT22;15241;48.374;10.876;2023-05-28T00:30:17;16.20;98.40
27896;DHT22;15241;48.374;10.876;2023-05-28T00:35:16;16.20;98.40
27896;DHT22;15241;48.374;10.876;2023-05-28T00:40:17;16.20;98.30
27896;DHT22;15241;48.374;10.876;2023-05-28T00:45:16;16.20;98.50
27896;DHT22;15241;48.374;10.876;2023-05-28T00:50:15;16.10;98.50
27896;DHT22;15241;48.374;10.876;2023-05-28T00:55:15;16.10;98.60
27896;DHT22;15241;48.374;10.876;2023-05-28T01:00:16;16.00;99.20
27896;DHT22;15241;48.374;10.876;2023-05-28T01:05:15;15.80;99.10
27896;DHT22;15241;48.374;10.876;2023-05-28T01:10:14;15.80;99.60
27896;DHT22;15241;48.374;10.876;2023-05-28T01:15:13;15.80;99.70
27896;DHT22;15241;48.374;10.876;2023-05-28T01:20:13;15.70;99.60
27896;DHT22;15241;48.374;10.876;2023-05-28T01:30:18;15.50;99.70
27896;DHT22;15241;48.374;10.876;2023-05-28T01:35:17;15.50;99.90
27896;DHT22;15241;48.374;10.876;2023-05-28T01:40:17;15.40;99.90
27896;DHT22;15241;48.374;10.876;2023-05-28T01:45:17;15.30;99.90
27896;DHT22;15241;48.374;10.876;2023-05-28T01:50:16;15.20;99.90
27896;DHT22;15241;48.374;10.876;2023-05-28T01:55:15;15.10;99.90
27896;DHT22;15241;48.374;10.876;2023-05-28T02:00:16;15.10;99.90
27896;DHT22;15241;48.374;10.876;2023-05-28T02:05:15;15.10;99.90
27896;DHT22;15241;48.374;10.876;2023-05-28T02:10:14;15.00;99.90
27896;DHT22;15241;48.374;10.876;2023-05-28T02:15:13;14.90;99.90
27896;DHT22;15241;48.374;10.876;2023-05-28T02:20:12;14.90;99.90
27896;DHT22;15241;48.374;10.876;2023-05-28T02:30:19;14.70;99.70
27896;DHT22;15241;48.374;10.876;2023-05-28T02:35:18;14.60;99.50
27896;DHT22;15241;48.374;10.876;2023-05-28T02:40:16;14.70;99.70
27896;DHT22;15241;48.374;10.876;2023-05-28T02:45:15;14.60;99.60
27896;DHT22;15241;48.374;10.876;2023-05-28T02:50:16;14.50;99.80
27896;DHT22;15241;48.374;10.876;2023-05-28T02:55:15;14.50;99.60
27896;DHT22;15241;48.374;10.876;2023-05-28T03:00:16;14.50;99.70
27896;DHT22;15241;48.374;10.876;2023-05-28T03:05:15;14.40;99.70
27896;DHT22;15241;48.374;10.876;2023-05-28T03:10:14;14.40;99.80
27896;DHT22;15241;48.374;10.876;2023-05-28T03:15:14;14.30;99.80
27896;DHT22;15241;48.374;10.876;2023-05-28T03:20:13;14.30;99.90
27896;DHT22;15241;48.374;10.876;2023-05-28T03:25:12;14.30;99.90
27896;DHT22;15241;48.374;10.876;2023-05-28T03:30:13;14.30;99.90
27896;DHT22;15241;48.374;10.876;2023-05-28T03:35:12;14.20;99.90
27896;DHT22;15241;48.374;10.876;2023-05-28T03:40:12;14.20;99.90
27896;DHT22;15241;48.374;10.876;2023-05-28T03:45:11;14.10;99.90
27896;DHT22;15241;48.374;10.876;2023-05-28T03:50:11;14.10;99.90
27896;DHT22;15241;48.374;10.876;2023-05-28T03:55:10;14.10;99.90
27896;DHT22;15241;48.374;10.876;2023-05-28T04:00:12;14.00;99.90
27896;DHT22;15241;48.374;10.876;2023-05-28T04:05:11;14.00;99.90
27896;DHT22;15241;48.374;10.876;2023-05-28T04:10:11;14.10;99.90
27896;DHT22;15241;48.374;10.876;2023-05-28T04:15:11;14.10;99.90
27896;DHT22;15241;48.374;10.876;2023-05-28T04:20:11;14.10;99.90
27896;DHT22;15241;48.374;10.876;2023-05-28T04:25:10;14.10;99.90
27896;DHT22;15241;48.374;10.876;2023-05-28T04:30:12;14.10;99.90
27896;DHT22;15241;48.374;10.876;2023-05-28T04:35:11;14.20;99.90
27896;DHT22;15241;48.374;10.876;2023-05-28T04:40:11;14.30;99.90
27896;DHT22;15241;48.374;10.876;2023-05-28T04:45:11;14.40;99.90
27896;DHT22;15241;48.374;10.876;2023-05-28T04:50:11;14.40;99.90
27896;DHT22;15241;48.374;10.876;2023-05-28T04:55:10;14.60;99.90
27896;DHT22;15241;48.374;10.876;2023-05-28T05:00:11;14.70;99.90
27896;DHT22;15241;48.374;10.876;2023-05-28T05:10:18;14.90;99.90
27896;DHT22;15241;48.374;10.876;2023-05-28T05:15:17;14.90;99.90
27896;DHT22;15241;48.374;10.876;2023-05-28T05:20:16;14.90;99.90
27896;DHT22;15241;48.374;10.876;2023-05-28T05:25:15;15.10;99.90
27896;DHT22;15241;48.374;10.876;2023-05-28T05:30:14;15.20;99.90
27896;DHT22;15241;48.374;10.876;2023-05-28T05:35:14;15.30;99.90
27896;DHT22;15241;48.374;10.876;2023-05-28T05:40:13;15.40;99.60
27896;DHT22;15241;48.374;10.876;2023-05-28T05:45:12;15.50;99.80
27896;DHT22;15241;48.374;10.876;2023-05-28T05:55:31;15.70;99.80
27896;DHT22;15241;48.374;10.876;2023-05-28T06:00:30;15.70;99.40
27896;DHT22;15241;48.374;10.876;2023-05-28T06:05:29;15.90;99.50
27896;DHT22;15241;48.374;10.876;2023-05-28T06:10:28;16.00;99.40
27896;DHT22;15241;48.374;10.876;2023-05-28T06:15:27;16.10;99.40
27896;DHT22;15241;48.374;10.876;2023-05-28T06:20:25;16.20;99.10
27896;DHT22;15241;48.374;10.876;2023-05-28T06:25:24;16.40;99.90
27896;DHT22;15241;48.374;10.876;2023-05-28T06:30:24;16.50;98.90
27896;DHT22;15241;48.374;10.876;2023-05-28T06:35:23;16.60;98.50
27896;DHT22;15241;48.374;10.876;2023-05-28T06:40:22;16.60;99.00
27896;DHT22;15241;48.374;10.876;2023-05-28T06:45:21;16.90;98.50
27896;DHT22;15241;48.374;10.876;2023-05-28T06:50:20;16.90;98.40
27896;DHT22;15241;48.374;10.876;2023-05-28T06:55:19;17.10;98.40
27896;DHT22;15241;48.374;10.876;2023-05-28T07:00:20;17.30;98.60
27896;DHT22;15241;48.374;10.876;2023-05-28T07:05:19;17.30;98.00
27896;DHT22;15241;48.374;10.876;2023-05-28T07:10:18;17.40;98.10
27896;DHT22;15241;48.374;10.876;2023-05-28T07:15:17;17.60;97.80
27896;DHT22;15241;48.374;10.876;2023-05-28T07:20:16;17.70;97.70
27896;DHT22;15241;48.374;10.876;2023-05-28T07:25:15;17.90;97.50
27896;DHT22;15241;48.374;10.876;2023-05-28T07:30:14;18.00;97.20
27896;DHT22;15241;48.374;10.876;2023-05-28T07:35:13;18.30;97.40
27896;DHT22;15241;48.374;10.876;2023-05-28T07:45:18;18.60;97.00
27896;DHT22;15241;48.374;10.876;2023-05-28T07:50:17;18.90;96.90
27896;DHT22;15241;48.374;10.876;2023-05-28T07:55:17;19.00;96.50
27896;DHT22;15241;48.374;10.876;2023-05-28T08:00:17;19.10;96.00
27896;DHT22;15241;48.374;10.876;2023-05-28T08:05:16;19.30;97.20
27896;DHT22;15241;48.374;10.876;2023-05-28T08:10:15;19.50;97.40
27896;DHT22;15241;48.374;10.876;2023-05-28T08:15:14;19.70;97.00
27896;DHT22;15241;48.374;10.876;2023-05-28T08:20:13;19.90;96.30
27896;DHT22;15241;48.374;10.876;2023-05-28T08:25:12;20.10;96.70
27896;DHT22;15241;48.374;10.876;2023-05-28T08:30:13;20.30;96.40
27896;DHT22;15241;48.374;10.876;2023-05-28T08:35:14;20.50;95.80
27896;DHT22;15241;48.374;10.876;2023-05-28T08:40:14;20.70;95.60
27896;DHT22;15241;48.374;10.876;2023-05-28T08:45:13;20.90;94.70
27896;DHT22;15241;48.374;10.876;2023-05-28T08:50:14;21.10;94.50
27896;DHT22;15241;48.374;10.876;2023-05-28T08:55:14;21.20;93.80
27896;DHT22;15241;48.374;10.876;2023-05-28T09:00:14;21.50;93.70
27896;DHT22;15241;48.374;10.876;2023-05-28T09:05:13;21.80;93.70
27896;DHT22;15241;48.374;10.876;2023-05-28T09:10:12;22.10;93.20
27896;DHT22;15241;48.374;10.876;2023-05-28T09:15:11;22.30;93.00
27896;DHT22;15241;48.374;10.876;2023-05-28T09:20:13;22.50;91.80
27896;DHT22;15241;48.374;10.876;2023-05-28T09:25:12;22.80;91.70
27896;DHT22;15241;48.374;10.876;2023-05-28T09:30:13;22.90;90.70
27896;DHT22;15241;48.374;10.876;2023-05-28T09:35:12;23.20;90.90
27896;DHT22;15241;48.374;10.876;2023-05-28T09:40:12;23.50;90.90
27896;DHT22;15241;48.374;10.876;2023-05-28T09:45:12;23.70;89.60
27896;DHT22;15241;48.374;10.876;2023-05-28T09:50:14;23.90;90.20
27896;DHT22;15241;48.374;10.876;2023-05-28T09:55:14;24.10;89.30
27896;DHT22;15241;48.374;10.876;2023-05-28T10:00:20;24.40;85.90
27896;DHT22;15241;48.374;10.876;2023-05-28T10:05:19;24.70;86.00
27896;DHT22;15241;48.374;10.876;2023-05-28T10:10:20;24.80;83.40
27896;DHT22;15241;48.374;10.876;2023-05-28T10:15:20;25.10;82.80
27896;DHT22;15241;48.374;10.876;2023-05-28T10:20:19;25.30;83.60
27896;DHT22;15241;48.374;10.876;2023-05-28T10:25:19;25.60;83.00
27896;DHT22;15241;48.374;10.876;2023-05-28T10:30:35;25.80;81.40
27896;DHT22;15241;48.374;10.876;2023-05-28T10:35:35;26.00;77.80
27896;DHT22;15241;48.374;10.876;2023-05-28T10:40:34;26.20;81.20
27896;DHT22;15241;48.374;10.876;2023-05-28T10:45:37;26.30;76.00
27896;DHT22;15241;48.374;10.876;2023-05-28T10:50:55;26.50;80.20
27896;DHT22;15241;48.374;10.876;2023-05-28T10:55:55;26.80;79.60
27896;DHT22;15241;48.374;10.876;2023-05-28T11:01:04;27.10;78.40
27896;DHT22;15241;48.374;10.876;2023-05-28T11:06:06;27.30;79.00
27896;DHT22;15241;48.374;10.876;2023-05-28T11:11:05;27.50;77.80
27896;DHT22;15241;48.374;10.876;2023-05-28T11:16:08;27.90;77.90
27896;DHT22;15241;48.374;10.876;2023-05-28T11:21:08;28.10;78.90
27896;DHT22;15241;48.374;10.876;2023-05-28T11:26:20;28.30;75.70
27896;DHT22;15241;48.374;10.876;2023-05-28T11:31:17;28.40;75.20
27896;DHT22;15241;48.374;10.876;2023-05-28T11:36:15;28.50;74.20
27896;DHT22;15241;48.374;10.876;2023-05-28T11:41:16;28.50;71.00
27896;DHT22;15241;48.374;10.876;2023-05-28T11:46:17;28.80;72.60
27896;DHT22;15241;48.374;10.876;2023-05-28T11:51:16;29.10;73.10
27896;DHT22;15241;48.374;10.876;2023-05-28T11:56:16;29.30;69.60
27896;DHT22;15241;48.374;10.876;2023-05-28T12:01:15;29.50;68.50
27896;DHT22;15241;48.374;10.876;2023-05-28T12:06:14;29.90;66.70
27896;DHT22;15241;48.374;10.876;2023-05-28T12:11:14;29.70;66.40
27896;DHT22;15241;48.374;10.876;2023-05-28T12:16:13;29.90;67.30
27896;DHT22;15241;48.374;10.876;2023-05-28T12:21:13;30.10;66.30
27896;DHT22;15241;48.374;10.876;2023-05-28T12:26:13;30.20;66.40
27896;DHT22;15241;48.374;10.876;2023-05-28T12:31:12;30.40;68.80
27896;DHT22;15241;48.374;10.876;2023-05-28T12:36:13;30.50;67.70
27896;DHT22;15241;48.374;10.876;2023-05-28T12:46:18;30.90;64.60
27896;DHT22;15241;48.374;10.876;2023-05-28T12:51:17;30.80;62.00
27896;DHT22;15241;48.374;10.876;2023-05-28T12:56:16;31.00;63.60
27896;DHT22;15241;48.374;10.876;2023-05-28T13:01:15;30.90;61.50
27896;DHT22;15241;48.374;10.876;2023-05-28T13:06:15;31.10;60.20
27896;DHT22;15241;48.374;10.876;2023-05-28T13:11:14;31.20;59.70
27896;DHT22;15241;48.374;10.876;2023-05-28T13:16:13;31.10;56.80
27896;DHT22;15241;48.374;10.876;2023-05-28T13:21:12;31.70;59.00
27896;DHT22;15241;48.374;10.876;2023-05-28T13:26:11;31.40;57.00
27896;DHT22;15241;48.374;10.876;2023-05-28T13:31:10;31.50;58.10
27896;DHT22;15241;48.374;10.876;2023-05-28T13:36:09;31.90;59.40
27896;DHT22;15241;48.374;10.876;2023-05-28T13:41:08;32.10;54.70
27896;DHT22;15241;48.374;10.876;2023-05-28T13:46:07;32.20;56.00
27896;DHT22;15241;48.374;10.876;2023-05-28T13:51:07;32.40;57.40
27896;DHT22;15241;48.374;10.876;2023-05-28T13:56:06;32.50;57.80
27896;DHT22;15241;48.374;10.876;2023-05-28T14:01:05;32.30;56.30
27896;DHT22;15241;48.374;10.876;2023-05-28T14:06:06;32.50;57.00
27896;DHT22;15241;48.374;10.876;2023-05-28T14:11:05;31.80;57.50
27896;DHT22;15241;48.374;10.876;2023-05-28T14:16:05;32.20;58.50
27896;DHT22;15241;48.374;10.876;2023-05-28T14:21:05;32.50;59.20
27896;DHT22;15241;48.374;10.876;2023-05-28T14:31:11;32.30;58.00
27896;DHT22;15241;48.374;10.876;2023-05-28T14:36:10;32.10;56.30
27896;DHT22;15241;48.374;10.876;2023-05-28T14:41:09;31.80;56.40
27896;DHT22;15241;48.374;10.876;2023-05-28T14:46:08;31.70;55.00
27896;DHT22;15241;48.374;10.876;2023-05-28T14:51:07;31.60;54.90
27896;DHT22;15241;48.374;10.876;2023-05-28T14:56:06;31.50;52.60
27896;DHT22;15241;48.374;10.876;2023-05-28T15:01:06;31.20;51.00
27896;DHT22;15241;48.374;10.876;2023-05-28T15:06:06;31.20;53.20
27896;DHT22;15241;48.374;10.876;2023-05-28T15:11:07;31.40;55.10
27896;DHT22;15241;48.374;10.876;2023-05-28T15:16:08;31.50;51.50
27896;DHT22;15241;48.374;10.876;2023-05-28T15:21:07;31.50;52.10
27896;DHT22;15241;48.374;10.876;2023-05-28T15:26:07;31.50;51.60
27896;DHT22;15241;48.374;10.876;2023-05-28T15:31:06;31.00;48.00
27896;DHT22;15241;48.374;10.876;2023-05-28T15:36:07;31.20;49.30
27896;DHT22;15241;48.374;10.876;2023-05-28T15:41:07;31.00;49.70
27896;DHT22;15241;48.374;10.876;2023-05-28T15:46:07;31.00;50.30
27896;DHT22;15241;48.374;10.876;2023-05-28T15:51:06;31.00;50.80
27896;DHT22;15241;48.374;10.876;2023-05-28T15:56:08;30.60;49.00
27896;DHT22;15241;48.374;10.876;2023-05-28T16:01:09;30.20;47.60
27896;DHT22;15241;48.374;10.876;2023-05-28T16:06:10;30.50;51.10
27896;DHT22;15241;48.374;10.876;2023-05-28T16:11:11;30.40;51.40
27896;DHT22;15241;48.374;10.876;2023-05-28T16:16:13;30.20;51.90
27896;DHT22;15241;48.374;10.876;2023-05-28T16:21:13;30.10;52.40
27896;DHT22;15241;48.374;10.876;2023-05-28T16:26:12;30.10;52.60
27896;DHT22;15241;48.374;10.876;2023-05-28T16:31:14;29.80;52.30
27896;DHT22;15241;48.374;10.876;2023-05-28T16:36:15;29.70;53.10
27896;DHT22;15241;48.374;10.876;2023-05-28T16:41:15;29.60;52.90
27896;DHT22;15241;48.374;10.876;2023-05-28T16:46:15;29.40;54.30
27896;DHT22;15241;48.374;10.876;2023-05-28T16:51:14;29.20;53.50
27896;DHT22;15241;48.374;10.876;2023-05-28T16:56:13;28.90;52.70
27896;DHT22;15241;48.374;10.876;2023-05-28T17:01:12;28.70;54.50
27896;DHT22;15241;48.374;10.876;2023-05-28T17:06:12;28.60;54.10
27896;DHT22;15241;48.374;10.876;2023-05-28T17:11:11;28.30;53.30
27896;DHT22;15241;48.374;10.876;2023-05-28T17:16:09;28.20;55.30
27896;DHT22;15241;48.374;10.876;2023-05-28T17:21:08;28.00;55.80
27896;DHT22;15241;48.374;10.876;2023-05-28T17:26:07;27.80;56.10
27896;DHT22;15241;48.374;10.876;2023-05-28T17:31:06;27.50;55.90
27896;DHT22;15241;48.374;10.876;2023-05-28T17:36:07;27.50;58.30
27896;DHT22;15241;48.374;10.876;2023-05-28T17:41:06;27.20;57.50
27896;DHT22;15241;48.374;10.876;2023-05-28T17:46:05;27.00;59.30
27896;DHT22;15241;48.374;10.876;2023-05-28T17:51:04;26.70;59.20
27896;DHT22;15241;48.374;10.876;2023-05-28T17:56:04;26.50;59.40
27896;DHT22;15241;48.374;10.876;2023-05-28T18:01:03;26.20;59.80
27896;DHT22;15241;48.374;10.876;2023-05-28T18:06:02;26.00;61.30
27896;DHT22;15241;48.374;10.876;2023-05-28T18:11:01;25.80;62.00
27896;DHT22;15241;48.374;10.876;2023-05-28T18:16:00;25.60;63.20
27896;DHT22;15241;48.374;10.876;2023-05-28T18:20:59;25.40;63.50
27896;DHT22;15241;48.374;10.876;2023-05-28T18:25:58;25.10;63.50
27896;DHT22;15241;48.374;10.876;2023-05-28T18:30:57;24.90;63.20
27896;DHT22;15241;48.374;10.876;2023-05-28T18:35:56;24.80;64.40
27896;DHT22;15241;48.374;10.876;2023-05-28T18:40:54;24.70;64.50
27896;DHT22;15241;48.374;10.876;2023-05-28T18:45:53;24.50;65.90
27896;DHT22;15241;48.374;10.876;2023-05-28T18:50:52;24.30;66.80
27896;DHT22;15241;48.374;10.876;2023-05-28T18:55:51;24.20;67.10
27896;DHT22;15241;48.374;10.876;2023-05-28T19:00:50;24.00;67.90
27896;DHT22;15241;48.374;10.876;2023-05-28T19:05:49;23.80;67.90
27896;DHT22;15241;48.374;10.876;2023-05-28T19:10:48;23.60;68.50
27896;DHT22;15241;48.374;10.876;2023-05-28T19:15:47;23.40;69.00
27896;DHT22;15241;48.374;10.876;2023-05-28T19:20:46;23.10;68.90
27896;DHT22;15241;48.374;10.876;2023-05-28T19:25:45;22.90;70.70
27896;DHT22;15241;48.374;10.876;2023-05-28T19:30:44;22.70;71.70
27896;DHT22;15241;48.374;10.876;2023-05-28T19:35:43;22.50;72.50
27896;DHT22;15241;48.374;10.876;2023-05-28T19:40:42;22.30;73.00
27896;DHT22;15241;48.374;10.876;2023-05-28T19:45:41;22.20;73.30
27896;DHT22;15241;48.374;10.876;2023-05-28T19:50:40;22.00;73.90
27896;DHT22;15241;48.374;10.876;2023-05-28T19:55:39;21.70;74.60
27896;DHT22;15241;48.374;10.876;2023-05-28T20:00:37;21.50;76.10
27896;DHT22;15241;48.374;10.876;2023-05-28T20:05:36;21.30;77.40
27896;DHT22;15241;48.374;10.876;2023-05-28T20:10:35;21.00;78.50
27896;DHT22;15241;48.374;10.876;2023-05-28T20:15:34;20.80;79.20
27896;DHT22;15241;48.374;10.876;2023-05-28T20:20:33;20.60;79.70
27896;DHT22;15241;48.374;10.876;2023-05-28T20:25:33;20.40;80.90
27896;DHT22;15241;48.374;10.876;2023-05-28T20:30:32;20.30;81.80
27896;DHT22;15241;48.374;10.876;2023-05-28T20:35:31;20.10;82.10
27896;DHT22;15241;48.374;10.876;2023-05-28T20:40:30;19.90;81.90
27896;DHT22;15241;48.374;10.876;2023-05-28T20:45:29;19.70;82.90
27896;DHT22;15241;48.374;10.876;2023-05-28T20:50:29;19.50;83.90
27896;DHT22;15241;48.374;10.876;2023-05-28T20:55:28;19.40;85.00
27896;DHT22;15241;48.374;10.876;2023-05-28T21:00:27;19.20;85.80
27896;DHT22;15241;48.374;10.876;2023-05-28T21:05:26;19.10;87.20
27896;DHT22;15241;48.374;10.876;2023-05-28T21:10:25;19.00;88.40
27896;DHT22;15241;48.374;10.876;2023-05-28T21:15:24;18.80;89.00
27896;DHT22;15241;48.374;10.876;2023-05-28T21:20:23;18.70;89.70
27896;DHT22;15241;48.374;10.876;2023-05-28T21:25:22;18.50;90.10
27896;DHT22;15241;48.374;10.876;2023-05-28T21:30:21;18.40;90.40
27896;DHT22;15241;48.374;10.876;2023-05-28T21:35:20;18.30;90.90
27896;DHT22;15241;48.374;10.876;2023-05-28T21:40:19;18.20;91.30
27896;DHT22;15241;48.374;10.876;2023-05-28T21:45:18;18.10;91.70
27896;DHT22;15241;48.374;10.876;2023-05-28T21:50:16;18.00;91.80
27896;DHT22;15241;48.374;10.876;2023-05-28T21:55:16;17.90;91.90
27896;DHT22;15241;48.374;10.876;2023-05-28T22:00:17;17.80;92.50
27896;DHT22;15241;48.374;10.876;2023-05-28T22:05:16;17.80;93.00
27896;DHT22;15241;48.374;10.876;2023-05-28T22:10:16;17.60;93.50
27896;DHT22;15241;48.374;10.876;2023-05-28T22:15:15;17.50;94.00
27896;DHT22;15241;48.374;10.876;2023-05-28T22:20:14;17.40;94.40
27896;DHT22;15241;48.374;10.876;2023-05-28T22:25:13;17.30;94.70
27896;DHT22;15241;48.374;10.876;2023-05-28T22:30:13;17.20;95.10
27896;DHT22;15241;48.374;10.876;2023-05-28T22:35:12;17.10;95.50
27896;DHT22;15241;48.374;10.876;2023-05-28T22:40:12;17.00;95.70
27896;DHT22;15241;48.374;10.876;2023-05-28T22:45:12;16.90;96.10
27896;DHT22;15241;48.374;10.876;2023-05-28T22:50:12;16.80;96.50
27896;DHT22;15241;48.374;10.876;2023-05-28T23:00:19;16.60;97.20
27896;DHT22;15241;48.374;10.876;2023-05-28T23:05:18;16.60;97.50
27896;DHT22;15241;48.374;10.876;2023-05-28T23:10:17;16.60;97.60
27896;DHT22;15241;48.374;10.876;2023-05-28T23:15:17;16.50;98.10
27896;DHT22;15241;48.374;10.876;2023-05-28T23:20:17;16.40;98.20
27896;DHT22;15241;48.374;10.876;2023-05-28T23:25:16;16.40;98.70
27896;DHT22;15241;48.374;10.876;2023-05-28T23:30:15;16.30;99.10
27896;DHT22;15241;48.374;10.876;2023-05-28T23:35:14;16.20;99.60
27896;DHT22;15241;48.374;10.876;2023-05-28T23:40:14;16.10;99.90
27896;DHT22;15241;48.374;10.876;2023-05-28T23:45:13;16.10;99.90
27896;DHT22;15241;48.374;10.876;2023-05-28T23:50:12;16.10;99.90
27896;DHT22;15241;48.374;10.876;2023-05-28T23:55:11;16.00;99.90
